Terminal Aerodrome Forecast
Issued by NWS Anchorage, AK

Home | Current Version | Previous Version | Text Only | Print | Product List | Glossary On
Versions: 1 2 3 4 5 6 7 8 9 10 11 12 13 14 15 16 17 18 19 20 21 22 23 24 25 26 27 28 29 30 31 32 33 34 35 36 37 38 39 40 41
000
FTAK31 PANC 260158 AAC
TAFANC
TAF AMD
PANC 260158Z 2602/2706 04007KT P6SM VCSH SCT025 BKN040
      TEMPO 2602/2604 -SHSN BKN025
     FM260600 VRB04KT P6SM SCT050 BKN080
     FM261500 36006KT P6SM VCFG FEW010 SCT070 BKN200
     FM262000 34005KT P6SM SKC=

USA.gov is the U.S. government's official web portal to all federal, state and local government web resources and services.